Time;durP1;ratioP1;P1;durP2;ratioP2;P2;SDS_P1;SDS_P2;PMS_P1;PMS_P2;Temp;Humidity;BMP_temperature;BMP_pressure;BME280_temperature;BME280_humidity;BME280_pressure;Samples;Min_cycle;Max_cycle;Signal;HPM_P1;HPM_P2
2022/10/22 00:02:19;;;;;;;18.88;10.95;;;12.90;99.90;;;;;;6312227;22;20041;-79
2022/10/22 00:04:46;;;;;;;18.00;10.10;;;12.90;99.90;;;;;;6340089;22;20022;-79
2022/10/22 00:07:12;;;;;;;16.00;10.38;;;12.80;99.90;;;;;;6312068;22;20014;-79
2022/10/22 00:09:38;;;;;;;18.83;10.63;;;12.80;99.90;;;;;;6312092;22;20019;-79
2022/10/22 00:12:04;;;;;;;19.27;10.65;;;12.80;99.90;;;;;;6340736;22;20015;-79
2022/10/22 00:14:29;;;;;;;18.00;10.20;;;12.80;99.90;;;;;;6312058;22;20089;-79
2022/10/22 00:16:55;;;;;;;23.50;10.20;;;12.80;99.90;;;;;;6311942;22;20431;-79
2022/10/22 00:19:21;;;;;;;15.27;10.23;;;12.70;99.90;;;;;;6340000;22;20261;-79
2022/10/22 00:21:46;;;;;;;16.48;10.05;;;12.80;99.90;;;;;;6339537;22;20015;-79
2022/10/22 00:24:12;;;;;;;17.70;10.15;;;12.70;99.90;;;;;;6311992;22;20050;-79
2022/10/22 00:26:39;;;;;;;16.98;10.10;;;12.70;99.90;;;;;;6311947;22;20046;-79
2022/10/22 00:29:05;;;;;;;16.20;10.50;;;12.60;99.90;;;;;;6311924;22;20050;-79
2022/10/22 00:31:30;;;;;;;16.75;10.13;;;12.60;99.90;;;;;;6311940;22;20500;-79
2022/10/22 00:33:56;;;;;;;17.20;10.68;;;12.60;99.90;;;;;;6311884;22;20010;-79
2022/10/22 00:36:22;;;;;;;19.27;10.65;;;12.60;99.90;;;;;;6339665;22;20024;-79
2022/10/22 00:38:47;;;;;;;17.52;10.07;;;12.60;99.90;;;;;;6312236;22;20152;-79
2022/10/22 00:41:13;;;;;;;21.55;9.98;;;12.60;99.90;;;;;;6339198;22;20019;-79
2022/10/22 00:44:03;;;;;;;16.27;10.57;;;12.60;99.90;;;;;;6339464;22;20030;-79
2022/10/22 00:46:29;;;;;;;18.52;10.68;;;12.60;99.90;;;;;;6311532;22;20056;-79
2022/10/22 00:48:58;;;;;;;18.45;10.68;;;12.50;99.90;;;;;;6339781;22;20011;-79
2022/10/22 00:51:28;;;;;;;16.65;10.77;;;12.50;99.90;;;;;;6339146;22;20436;-79
2022/10/22 00:53:59;;;;;;;19.98;11.25;;;12.50;99.90;;;;;;6312391;22;20013;-79
2022/10/22 00:56:25;;;;;;;17.98;11.20;;;12.50;99.90;;;;;;6311620;22;20054;-79
2022/10/22 00:58:56;;;;;;;18.77;11.32;;;12.60;99.90;;;;;;6339645;22;20010;-79
2022/10/22 01:01:28;;;;;;;18.50;10.85;;;12.50;99.90;;;;;;6339415;22;20019;-79
2022/10/22 01:03:53;;;;;;;15.10;10.63;;;12.50;99.90;;;;;;6339723;22;20014;-79
2022/10/22 01:06:28;;;;;;;19.30;11.98;;;12.40;99.90;;;;;;6311618;22;20053;-79
2022/10/22 01:09:02;;;;;;;20.00;12.10;;;12.40;99.90;;;;;;6311538;22;20465;-79
2022/10/22 01:11:42;;;;;;;20.55;10.93;;;12.40;99.90;;;;;;6311685;22;20057;-79
2022/10/22 01:14:27;;;;;;;20.02;11.27;;;12.40;99.90;;;;;;6311603;22;20050;-79
2022/10/22 01:17:12;;;;;;;20.63;11.25;;;12.40;99.90;;;;;;6339123;22;20367;-79
2022/10/22 01:20:11;;;;;;;19.25;11.95;;;12.30;99.90;;;;;;6311627;22;20082;-79
2022/10/22 01:22:49;;;;;;;20.52;11.32;;;12.30;99.90;;;;;;6339240;22;20054;-79
2022/10/22 01:25:35;;;;;;;18.25;12.10;;;12.20;99.90;;;;;;6339191;22;20476;-79
2022/10/22 01:28:15;;;;;;;20.92;11.55;;;12.20;99.90;;;;;;6339424;22;20022;-79
2022/10/22 01:30:42;;;;;;;20.83;11.73;;;12.20;99.90;;;;;;6339575;22;20015;-79
2022/10/22 01:33:11;;;;;;;17.00;11.52;;;12.30;99.90;;;;;;6338954;22;20018;-80
2022/10/22 01:35:41;;;;;;;17.20;10.98;;;12.30;99.90;;;;;;6339050;22;20027;-79
2022/10/22 01:38:11;;;;;;;18.63;11.40;;;12.20;99.90;;;;;;6338844;22;20458;-80
2022/10/22 01:40:38;;;;;;;24.73;12.23;;;12.20;99.90;;;;;;6311752;22;20473;-79
2022/10/22 01:43:09;;;;;;;18.02;11.63;;;12.20;99.90;;;;;;6339021;22;20380;-79
2022/10/22 01:45:42;;;;;;;19.05;12.45;;;12.20;99.90;;;;;;6311211;22;20015;-79
2022/10/22 01:48:18;;;;;;;22.50;12.10;;;12.20;99.90;;;;;;6339463;22;20053;-79
2022/10/22 01:51:12;;;;;;;18.42;11.50;;;12.20;99.90;;;;;;6339446;22;20014;-79
2022/10/22 01:53:56;;;;;;;19.13;11.60;;;12.20;99.90;;;;;;6313233;22;20426;-79
2022/10/22 01:56:35;;;;;;;18.90;11.50;;;12.20;99.90;;;;;;6340904;22;20458;-79
2022/10/22 01:59:23;;;;;;;22.27;12.05;;;12.10;99.90;;;;;;6340843;22;20635;-79
2022/10/22 02:02:04;;;;;;;21.75;11.98;;;12.20;99.90;;;;;;6341230;22;20011;-79
2022/10/22 02:04:50;;;;;;;21.75;12.20;;;12.20;99.90;;;;;;6313317;22;20021;-80
2022/10/22 02:07:20;;;;;;;18.55;11.40;;;12.10;99.90;;;;;;6313385;22;20022;-79
2022/10/22 02:09:47;;;;;;;19.50;12.18;;;12.10;99.90;;;;;;6313169;22;20103;-80
2022/10/22 02:12:14;;;;;;;20.20;11.88;;;12.20;99.90;;;;;;6313114;22;20015;-79
2022/10/22 02:14:42;;;;;;;20.65;12.48;;;12.20;99.90;;;;;;6341157;22;20015;-79
2022/10/22 02:17:13;;;;;;;21.50;12.13;;;12.20;99.90;;;;;;6340489;22;20361;-79
2022/10/22 02:19:55;;;;;;;22.88;12.50;;;12.10;99.90;;;;;;6341025;22;20040;-79
2022/10/22 02:22:21;;;;;;;22.05;12.40;;;12.20;99.90;;;;;;6341011;22;20056;-79
2022/10/22 02:24:48;;;;;;;18.83;11.23;;;12.20;99.90;;;;;;6340581;22;20022;-79
2022/10/22 02:27:28;;;;;;;19.55;11.85;;;12.20;99.90;;;;;;6340964;22;20100;-79
2022/10/22 02:30:07;;;;;;;18.58;10.60;;;12.20;99.90;;;;;;6340617;22;20029;-79
2022/10/22 02:32:44;;;;;;;18.38;11.85;;;12.30;99.90;;;;;;6313061;22;20011;-80
2022/10/22 02:35:13;;;;;;;19.90;11.65;;;12.20;99.90;;;;;;6312977;22;20099;-79
2022/10/22 02:37:40;;;;;;;16.30;10.88;;;12.20;99.90;;;;;;6340333;22;20387;-80
2022/10/22 02:40:06;;;;;;;22.00;11.85;;;12.20;99.90;;;;;;6340839;22;20079;-79
2022/10/22 02:42:33;;;;;;;22.50;12.13;;;12.20;99.90;;;;;;6340793;22;20021;-79
2022/10/22 02:44:59;;;;;;;24.00;12.40;;;12.20;99.90;;;;;;6312715;22;20047;-79
2022/10/22 02:47:24;;;;;;;18.67;11.73;;;12.20;99.90;;;;;;6340749;22;20014;-79
2022/10/22 02:49:50;;;;;;;18.17;11.07;;;12.30;99.90;;;;;;6340628;22;20022;-79
2022/10/22 02:52:16;;;;;;;18.48;11.38;;;12.30;99.90;;;;;;6312826;22;20007;-79
2022/10/22 02:54:41;;;;;;;19.45;12.50;;;12.30;99.90;;;;;;6340687;22;20049;-79
2022/10/22 02:57:07;;;;;;;23.05;11.65;;;12.30;99.90;;;;;;6340190;22;20022;-79
2022/10/22 02:59:33;;;;;;;20.40;11.50;;;12.30;99.90;;;;;;6340596;22;20483;-79
2022/10/22 03:01:58;;;;;;;18.67;10.80;;;12.30;99.90;;;;;;6340612;22;20011;-79
2022/10/22 03:04:24;;;;;;;19.35;11.38;;;12.30;99.90;;;;;;6340086;22;20080;-79
2022/10/22 03:06:49;;;;;;;17.02;9.90;;;12.30;99.90;;;;;;6340602;22;20330;-79
2022/10/22 03:09:16;;;;;;;18.27;11.25;;;12.40;99.90;;;;;;6340542;22;20375;-79
2022/10/22 03:11:41;;;;;;;20.48;11.68;;;12.40;99.90;;;;;;6340583;22;20011;-79
2022/10/22 03:14:07;;;;;;;20.48;11.32;;;12.40;99.90;;;;;;6340502;22;20488;-79
2022/10/22 03:16:32;;;;;;;18.75;10.13;;;12.40;99.90;;;;;;6312493;22;20014;-79
2022/10/22 03:19:00;;;;;;;19.77;11.55;;;12.40;99.90;;;;;;6340463;22;20014;-79
2022/10/22 03:21:54;;;;;;;19.65;10.90;;;12.40;99.90;;;;;;6340424;22;20006;-79
2022/10/22 03:24:25;;;;;;;18.98;9.45;;;12.40;99.90;;;;;;6328009;22;20022;-79
2022/10/22 03:26:51;;;;;;;21.80;12.02;;;12.40;99.90;;;;;;6340409;22;20011;-79
2022/10/22 03:29:20;;;;;;;23.08;11.65;;;12.40;99.90;;;;;;6340054;22;20025;-79
2022/10/22 03:31:45;;;;;;;17.77;10.38;;;12.40;99.90;;;;;;6340350;22;20011;-80
2022/10/22 03:34:12;;;;;;;15.40;9.55;;;12.40;99.90;;;;;;6340366;22;20331;-79
2022/10/22 03:36:39;;;;;;;19.85;10.68;;;12.50;99.90;;;;;;6340268;22;20018;-79
2022/10/22 03:39:06;;;;;;;18.95;10.02;;;12.40;99.90;;;;;;6312367;22;20011;-79
2022/10/22 03:41:33;;;;;;;19.33;10.10;;;12.50;99.90;;;;;;6312342;22;20014;-79
2022/10/22 03:44:01;;;;;;;17.45;9.68;;;12.50;99.90;;;;;;6312171;22;20015;-79
2022/10/22 03:46:27;;;;;;;16.73;9.95;;;12.50;99.90;;;;;;6340421;22;20017;-80
2022/10/22 03:48:53;;;;;;;19.92;10.20;;;12.50;99.90;;;;;;6312253;22;20055;-79
2022/10/22 03:51:18;;;;;;;17.83;9.07;;;12.40;99.90;;;;;;6340179;22;20376;-79
2022/10/22 03:53:44;;;;;;;18.77;9.80;;;12.40;99.90;;;;;;6340213;22;20450;-79
2022/10/22 03:56:11;;;;;;;16.27;9.88;;;12.50;99.90;;;;;;6339707;22;20019;-79
2022/10/22 03:58:38;;;;;;;21.83;10.20;;;12.40;99.90;;;;;;6312241;22;20039;-79
2022/10/22 04:01:07;;;;;;;16.35;9.38;;;12.50;99.90;;;;;;6312163;22;20068;-79
2022/10/22 04:03:33;;;;;;;17.48;9.48;;;12.40;99.90;;;;;;6312111;22;20064;-79
2022/10/22 04:06:10;;;;;;;20.65;9.98;;;12.40;99.90;;;;;;6312190;22;20019;-79
2022/10/22 04:08:38;;;;;;;18.48;9.68;;;12.40;99.90;;;;;;6312136;22;20034;-79
2022/10/22 04:11:04;;;;;;;19.38;9.25;;;12.30;99.90;;;;;;6312019;22;20015;-79
2022/10/22 04:13:29;;;;;;;15.82;9.70;;;12.40;99.90;;;;;;6312058;22;20045;-80
2022/10/22 04:15:55;;;;;;;18.70;9.70;;;12.40;99.90;;;;;;6311544;22;20015;-79
2022/10/22 04:18:22;;;;;;;16.55;8.93;;;12.40;99.90;;;;;;6340534;22;20060;-80
2022/10/22 04:20:50;;;;;;;19.25;9.15;;;12.40;99.90;;;;;;6339868;22;20023;-80
2022/10/22 04:23:15;;;;;;;14.90;8.95;;;12.40;99.90;;;;;;6312021;22;20018;-80
2022/10/22 04:25:41;;;;;;;23.08;8.50;;;12.40;99.90;;;;;;6339587;22;20023;-80
2022/10/22 04:28:08;;;;;;;20.70;9.30;;;12.40;99.90;;;;;;6339762;22;20117;-80
2022/10/22 04:30:35;;;;;;;14.77;8.30;;;12.40;99.90;;;;;;6311834;22;20011;-79
2022/10/22 04:33:01;;;;;;;20.08;9.05;;;12.40;99.90;;;;;;6311526;22;20010;-79
2022/10/22 04:35:27;;;;;;;18.67;9.50;;;12.30;99.90;;;;;;6311843;22;20068;-79
2022/10/22 04:37:54;;;;;;;19.08;9.02;;;12.40;99.90;;;;;;6311972;22;20101;-79
2022/10/22 04:40:20;;;;;;;22.42;8.60;;;12.30;99.90;;;;;;6311693;22;20077;-79
2022/10/22 04:42:45;;;;;;;16.08;8.82;;;12.40;99.90;;;;;;6339557;22;20042;-80
2022/10/22 04:45:11;;;;;;;15.65;8.73;;;12.40;99.90;;;;;;6311445;22;20019;-80
2022/10/22 04:47:37;;;;;;;19.23;9.00;;;12.30;99.90;;;;;;6339433;22;20019;-79
2022/10/22 04:50:03;;;;;;;17.73;8.40;;;12.30;99.90;;;;;;6311776;22;20088;-79
2022/10/22 04:52:30;;;;;;;13.38;9.05;;;12.30;99.90;;;;;;6311717;22;20011;-80
2022/10/22 04:54:55;;;;;;;16.17;8.60;;;12.30;99.90;;;;;;6339708;22;20026;-80
2022/10/22 04:57:21;;;;;;;18.38;8.32;;;12.30;99.90;;;;;;6311651;22;20015;-80
2022/10/22 04:59:47;;;;;;;15.70;8.45;;;12.30;99.90;;;;;;6339347;22;20107;-80
2022/10/22 05:02:15;;;;;;;17.83;8.88;;;12.30;99.90;;;;;;6311692;22;20015;-80
2022/10/22 05:04:43;;;;;;;20.13;8.95;;;12.30;99.90;;;;;;6339566;22;20085;-79
2022/10/22 05:07:08;;;;;;;21.02;8.60;;;12.30;99.90;;;;;;6339257;22;20050;-79
2022/10/22 05:09:34;;;;;;;18.77;8.60;;;12.30;99.90;;;;;;6311582;22;20029;-80
2022/10/22 05:12:00;;;;;;;16.27;9.07;;;12.40;99.90;;;;;;6311614;22;20521;-79
2022/10/22 05:14:26;;;;;;;17.25;9.07;;;12.40;99.90;;;;;;6311562;22;20060;-80
2022/10/22 05:16:52;;;;;;;18.67;8.68;;;12.40;99.90;;;;;;6311480;22;20015;-79
2022/10/22 05:19:36;;;;;;;14.63;8.27;;;12.30;99.90;;;;;;6339171;22;20443;-79
2022/10/22 05:22:03;;;;;;;19.48;9.02;;;12.40;99.90;;;;;;6311560;22;20015;-79
2022/10/22 05:24:30;;;;;;;21.80;9.27;;;12.30;99.90;;;;;;6339553;22;20086;-80
2022/10/22 05:26:56;;;;;;;21.10;9.30;;;12.30;99.90;;;;;;6340283;22;20011;-79
2022/10/22 05:29:23;;;;;;;19.02;8.65;;;12.40;99.90;;;;;;6313539;22;20445;-79
2022/10/22 05:31:48;;;;;;;17.30;8.60;;;12.30;99.90;;;;;;6341342;22;20058;-79
2022/10/22 05:34:14;;;;;;;15.90;8.52;;;12.30;99.90;;;;;;6341062;22;20045;-79
2022/10/22 05:36:40;;;;;;;16.02;8.10;;;12.40;99.90;;;;;;6312494;22;20049;-80
2022/10/22 05:39:06;;;;;;;15.50;8.65;;;12.40;99.90;;;;;;6313485;22;20011;-79
2022/10/22 05:41:34;;;;;;;15.07;8.55;;;12.40;99.90;;;;;;6341095;22;20204;-79
2022/10/22 05:44:00;;;;;;;18.75;8.85;;;12.30;99.90;;;;;;6313284;22;20046;-80
2022/10/22 05:46:28;;;;;;;13.57;8.32;;;12.40;99.90;;;;;;6340986;22;20434;-80
2022/10/22 05:49:00;;;;;;;21.25;8.48;;;12.40;99.90;;;;;;6341304;22;20010;-80
2022/10/22 05:51:27;;;;;;;16.55;8.68;;;12.40;99.90;;;;;;6341344;22;20094;-80
2022/10/22 05:53:55;;;;;;;13.77;8.23;;;12.30;99.90;;;;;;6341948;22;20085;-80
2022/10/22 05:56:22;;;;;;;18.45;8.57;;;12.30;99.90;;;;;;6341153;22;20087;-80
2022/10/22 05:58:48;;;;;;;17.95;9.05;;;12.30;99.90;;;;;;6341226;22;20025;-80
2022/10/22 06:01:19;;;;;;;20.23;8.77;;;12.40;99.90;;;;;;6341192;22;20015;-80
2022/10/22 06:03:46;;;;;;;21.38;8.80;;;12.40;99.90;;;;;;6313327;22;20019;-80
2022/10/22 06:06:20;;;;;;;16.23;8.88;;;12.50;99.90;;;;;;6313340;22;20108;-80
2022/10/22 06:08:47;;;;;;;19.25;8.55;;;12.40;99.90;;;;;;6340773;22;20320;-80
2022/10/22 06:11:13;;;;;;;17.38;8.73;;;12.50;99.90;;;;;;6313223;22;20018;-80
2022/10/22 06:13:38;;;;;;;16.77;9.05;;;12.50;99.90;;;;;;6312758;22;20011;-80
2022/10/22 06:16:04;;;;;;;20.85;8.93;;;12.40;99.90;;;;;;6312671;22;20007;-79
2022/10/22 06:18:30;;;;;;;17.23;8.35;;;12.40;99.90;;;;;;6312377;22;20054;-80
2022/10/22 06:20:55;;;;;;;19.10;8.88;;;12.50;99.90;;;;;;6311413;22;20384;-79
2022/10/22 06:23:21;;;;;;;17.70;8.50;;;12.40;99.90;;;;;;6312950;22;20014;-79
2022/10/22 06:25:59;;;;;;;16.98;8.60;;;12.40;99.90;;;;;;6340825;22;20007;-81
2022/10/22 06:28:25;;;;;;;16.38;9.27;;;12.40;99.90;;;;;;6312909;22;20022;-80
2022/10/22 06:30:51;;;;;;;15.75;7.68;;;12.40;99.90;;;;;;6312893;22;20070;-79
2022/10/22 06:33:17;;;;;;;18.80;8.55;;;12.50;99.90;;;;;;6311704;22;20011;-79
2022/10/22 06:35:44;;;;;;;17.58;8.57;;;12.40;99.90;;;;;;6340498;22;20021;-79
2022/10/22 06:38:10;;;;;;;17.10;8.52;;;12.50;99.90;;;;;;6340099;22;20014;-79
2022/10/22 06:40:36;;;;;;;19.35;8.60;;;12.40;99.90;;;;;;6340054;22;20390;-78
2022/10/22 06:43:02;;;;;;;19.85;9.23;;;12.40;99.90;;;;;;6312360;22;20023;-79
2022/10/22 06:45:27;;;;;;;15.68;8.63;;;12.50;99.90;;;;;;6312302;22;20021;-78
2022/10/22 06:47:54;;;;;;;14.13;8.18;;;12.50;99.90;;;;;;6312417;22;20055;-77
2022/10/22 06:50:20;;;;;;;17.88;9.20;;;12.50;99.90;;;;;;6340315;22;20011;-78
2022/10/22 06:52:46;;;;;;;16.65;9.07;;;12.50;99.90;;;;;;6340404;22;20030;-78
2022/10/22 06:55:11;;;;;;;15.32;8.82;;;12.50;99.90;;;;;;6340360;22;20026;-78
2022/10/22 06:57:37;;;;;;;16.13;8.68;;;12.50;99.90;;;;;;6340007;22;20048;-78
2022/10/22 07:00:05;;;;;;;21.30;9.45;;;12.50;99.90;;;;;;6312362;22;20029;-77
2022/10/22 07:02:30;;;;;;;24.08;9.32;;;12.50;99.90;;;;;;6339840;22;20015;-78
2022/10/22 07:04:56;;;;;;;17.23;8.02;;;12.50;99.90;;;;;;6312413;22;20136;-77
2022/10/22 07:07:21;;;;;;;20.42;8.43;;;12.50;99.90;;;;;;6340295;22;20097;-78
2022/10/22 07:09:48;;;;;;;16.10;8.70;;;12.50;99.90;;;;;;6312363;22;20319;-78
2022/10/22 07:12:14;;;;;;;23.90;9.02;;;12.50;99.90;;;;;;6312208;22;20044;-79
2022/10/22 07:14:40;;;;;;;16.90;8.55;;;12.50;99.90;;;;;;6340141;22;20006;-80
2022/10/22 07:17:05;;;;;;;14.15;8.43;;;12.60;99.90;;;;;;6340174;22;20019;-80
2022/10/22 07:19:31;;;;;;;14.88;8.10;;;12.50;99.90;;;;;;6339746;22;20019;-80
2022/10/22 07:21:57;;;;;;;18.42;8.80;;;12.60;99.90;;;;;;6340328;22;20030;-79
2022/10/22 07:24:22;;;;;;;18.58;8.52;;;12.60;99.90;;;;;;6340357;22;20349;-79
2022/10/22 07:26:48;;;;;;;19.35;8.80;;;12.60;99.90;;;;;;6312072;22;20019;-79
2022/10/22 07:29:16;;;;;;;19.65;9.35;;;12.60;99.90;;;;;;6339980;22;20022;-80
2022/10/22 07:31:42;;;;;;;14.45;7.97;;;12.60;99.90;;;;;;6312102;22;20015;-79
2022/10/22 07:34:08;;;;;;;15.93;7.97;;;12.70;99.90;;;;;;6340154;22;20019;-80
2022/10/22 07:36:34;;;;;;;24.33;8.45;;;12.70;99.90;;;;;;6339569;22;20430;-80
2022/10/22 07:39:00;;;;;;;16.98;9.15;;;12.70;99.90;;;;;;6339955;22;20011;-79
2022/10/22 07:41:27;;;;;;;20.65;8.30;;;12.70;99.90;;;;;;6339465;22;20019;-80
2022/10/22 07:43:54;;;;;;;17.42;8.15;;;12.70;99.90;;;;;;6339218;22;20385;-79
2022/10/22 07:46:20;;;;;;;17.10;7.82;;;12.80;99.90;;;;;;6339981;22;20014;-80
2022/10/22 07:48:46;;;;;;;17.67;8.18;;;12.80;99.90;;;;;;6311724;22;20007;-80
2022/10/22 07:51:12;;;;;;;18.75;9.60;;;12.80;99.90;;;;;;6339447;22;20113;-80
2022/10/22 07:53:38;;;;;;;18.55;7.70;;;12.80;99.90;;;;;;6312030;22;20334;-80
2022/10/22 07:56:04;;;;;;;17.35;7.95;;;12.80;99.90;;;;;;6339579;22;20015;-80
2022/10/22 07:58:30;;;;;;;14.00;8.68;;;12.90;99.90;;;;;;6311984;22;20015;-80
2022/10/22 08:00:57;;;;;;;16.75;7.82;;;12.90;99.90;;;;;;6311811;22;20021;-80
2022/10/22 08:03:23;;;;;;;15.07;7.30;;;12.90;99.90;;;;;;6311748;22;20085;-80
2022/10/22 08:05:50;;;;;;;18.77;7.55;;;13.00;99.90;;;;;;6311857;22;20050;-79
2022/10/22 08:08:16;;;;;;;12.98;7.15;;;13.00;99.90;;;;;;6339461;22;20556;-80
2022/10/22 08:10:42;;;;;;;16.67;7.85;;;13.00;99.90;;;;;;6311545;22;20042;-80
2022/10/22 08:13:08;;;;;;;14.35;7.63;;;13.10;99.90;;;;;;6311799;22;20018;-80
2022/10/22 08:15:34;;;;;;;21.48;7.85;;;13.20;99.90;;;;;;6339412;22;20399;-80
2022/10/22 08:18:00;;;;;;;17.95;7.80;;;13.10;99.90;;;;;;6339645;22;20087;-80
2022/10/22 08:20:25;;;;;;;16.90;6.70;;;13.20;99.90;;;;;;6311684;22;20026;-79
2022/10/22 08:22:51;;;;;;;19.08;7.35;;;13.30;99.90;;;;;;6311469;22;20011;-80
2022/10/22 08:25:17;;;;;;;15.70;6.93;;;13.30;99.90;;;;;;6311561;22;20023;-80
2022/10/22 08:27:43;;;;;;;19.38;7.28;;;13.40;99.90;;;;;;6311582;22;20391;-80
2022/10/22 08:30:10;;;;;;;14.82;6.30;;;13.40;99.90;;;;;;6339620;22;20011;-80
2022/10/22 08:32:36;;;;;;;13.23;6.57;;;13.50;99.90;;;;;;6339094;22;20413;-80
2022/10/22 08:35:01;;;;;;;17.05;6.30;;;13.50;99.90;;;;;;6339082;22;20062;-80
2022/10/22 08:37:27;;;;;;;10.73;6.35;;;13.60;99.90;;;;;;6339125;22;20476;-80
2022/10/22 08:39:52;;;;;;;15.57;6.25;;;13.70;99.90;;;;;;6339410;22;20369;-80
2022/10/22 08:42:43;;;;;;;10.93;6.07;;;13.70;99.90;;;;;;6311382;22;20022;-80
2022/10/22 08:45:46;;;;;;;19.90;6.03;;;13.80;99.90;;;;;;6311372;22;20086;-80
2022/10/22 08:48:39;;;;;;;20.02;7.13;;;13.80;99.90;;;;;;6339338;22;20019;-80
2022/10/22 08:51:06;;;;;;;13.93;6.85;;;13.80;99.90;;;;;;6311412;22;20015;-79
2022/10/22 08:54:02;;;;;;;13.25;5.85;;;14.00;99.90;;;;;;6311344;22;20509;-80
2022/10/22 08:56:28;;;;;;;15.07;6.05;;;14.00;99.90;;;;;;6311053;22;20025;-80
2022/10/22 08:59:07;;;;;;;17.40;5.55;;;14.10;99.90;;;;;;6311040;22;20026;-80
2022/10/22 09:01:37;;;;;;;13.98;6.20;;;14.20;99.90;;;;;;6339234;22;20007;-80
2022/10/22 09:04:24;;;;;;;15.13;6.40;;;14.30;99.90;;;;;;6339235;22;20051;-80
2022/10/22 09:06:52;;;;;;;18.35;6.15;;;14.30;99.90;;;;;;6311301;22;20007;-79
2022/10/22 09:09:19;;;;;;;17.45;6.07;;;14.40;99.90;;;;;;6338798;22;20491;-80
2022/10/22 09:11:48;;;;;;;16.17;5.78;;;14.60;99.90;;;;;;6311327;22;20064;-80
2022/10/22 09:14:20;;;;;;;14.20;5.20;;;14.70;99.90;;;;;;6338951;22;20454;-79
2022/10/22 09:17:09;;;;;;;19.38;5.78;;;14.80;99.90;;;;;;6338966;22;20015;-79
2022/10/22 09:19:51;;;;;;;14.45;5.57;;;15.00;99.90;;;;;;6339200;22;20015;-80
2022/10/22 09:22:23;;;;;;;12.93;5.30;;;15.10;99.90;;;;;;6311318;22;20021;-80
2022/10/22 09:24:58;;;;;;;15.20;5.47;;;15.20;99.90;;;;;;6338477;22;20003;-80
2022/10/22 09:27:29;;;;;;;21.30;6.20;;;15.30;99.90;;;;;;6311275;22;20023;-79
2022/10/22 09:29:55;;;;;;;13.02;4.78;;;15.30;99.90;;;;;;6310998;22;20110;-80
2022/10/22 09:32:21;;;;;;;11.27;5.18;;;15.30;99.90;;;;;;6339105;22;20011;-80
2022/10/22 09:34:48;;;;;;;13.70;4.30;;;15.30;99.90;;;;;;6311070;22;20014;-79
2022/10/22 09:37:23;;;;;;;14.57;5.15;;;15.20;99.90;;;;;;6339029;22;20019;-80
2022/10/22 09:39:54;;;;;;;12.20;4.60;;;15.30;99.90;;;;;;6339108;22;20007;-79
2022/10/22 09:42:23;;;;;;;14.98;5.47;;;15.30;99.90;;;;;;6311087;22;20045;-80
2022/10/22 09:44:53;;;;;;;18.48;4.97;;;15.30;99.90;;;;;;6338718;22;20055;-80
2022/10/22 09:47:45;;;;;;;15.15;5.00;;;15.30;99.90;;;;;;6339084;22;20022;-79
2022/10/22 09:50:38;;;;;;;16.57;4.73;;;15.40;99.90;;;;;;6334005;22;20046;-79
2022/10/22 09:53:24;;;;;;;12.20;4.45;;;15.40;99.90;;;;;;6311171;22;20330;-81
2022/10/22 09:55:53;;;;;;;16.40;4.10;;;15.40;99.90;;;;;;6338931;22;20013;-80
2022/10/22 09:58:19;;;;;;;13.00;5.07;;;15.30;99.90;;;;;;6311047;22;20469;-80
2022/10/22 10:00:50;;;;;;;14.38;4.68;;;15.40;99.90;;;;;;6310974;22;20011;-80
2022/10/22 10:03:23;;;;;;;19.23;4.95;;;15.50;99.90;;;;;;6310962;22;20029;-80
2022/10/22 10:05:53;;;;;;;15.98;4.75;;;15.40;99.90;;;;;;6311031;22;20027;-78
2022/10/22 10:08:19;;;;;;;11.40;4.40;;;15.40;99.90;;;;;;6339016;22;20014;-81
2022/10/22 10:10:52;;;;;;;11.38;4.53;;;15.50;99.90;;;;;;6309273;22;20086;-80
2022/10/22 10:13:37;;;;;;;13.55;5.00;;;15.50;99.90;;;;;;6311543;22;20503;-79
2022/10/22 10:16:02;;;;;;;11.77;4.40;;;15.50;99.90;;;;;;6312549;22;20026;-79
2022/10/22 10:18:45;;;;;;;13.63;4.57;;;15.50;99.90;;;;;;6312672;22;20018;-80
2022/10/22 10:21:37;;;;;;;10.50;4.13;;;15.50;99.90;;;;;;6312882;22;20015;-79
2022/10/22 10:24:47;;;;;;;11.02;4.95;;;15.60;99.90;;;;;;6312732;22;20076;-80
2022/10/22 10:27:54;;;;;;;11.60;5.43;;;15.70;99.90;;;;;;6287950;22;20011;-80
2022/10/22 10:30:24;;;;;;;11.40;5.28;;;15.50;99.90;;;;;;6277674;22;20050;-80
2022/10/22 10:33:22;;;;;;;11.90;5.15;;;15.60;99.90;;;;;;6312597;22;20014;-80
2022/10/22 10:36:02;;;;;;;12.55;4.97;;;15.60;99.90;;;;;;6292417;22;20010;-80
2022/10/22 10:39:03;;;;;;;14.90;5.78;;;15.50;99.90;;;;;;6299951;22;20015;-80
2022/10/22 10:41:57;;;;;;;12.75;5.30;;;15.60;99.90;;;;;;6312390;22;20014;-80
2022/10/22 10:44:31;;;;;;;11.02;5.68;;;15.70;99.90;;;;;;6312309;22;20019;-80
2022/10/22 10:47:02;;;;;;;14.80;5.97;;;15.70;99.90;;;;;;6340302;22;20015;-79
2022/10/22 10:49:33;;;;;;;12.77;6.60;;;15.80;99.90;;;;;;6340410;22;20063;-80
2022/10/22 10:52:15;;;;;;;14.35;6.50;;;15.80;99.90;;;;;;6312510;22;20015;-80
2022/10/22 10:54:49;;;;;;;18.83;7.05;;;16.00;99.90;;;;;;6339982;22;20023;-80
2022/10/22 10:57:41;;;;;;;15.40;6.53;;;16.20;99.90;;;;;;6339649;22;20459;-80
2022/10/22 11:00:20;;;;;;;13.93;5.85;;;16.10;99.90;;;;;;6291410;22;20021;-80
2022/10/22 11:03:01;;;;;;;9.38;4.97;;;16.20;99.90;;;;;;6312269;22;20037;-81
2022/10/22 11:05:47;;;;;;;13.68;4.60;;;16.20;99.90;;;;;;6312476;22;20373;-82
2022/10/22 11:08:24;;;;;;;11.55;5.55;;;16.20;99.90;;;;;;6340329;22;20014;-81
2022/10/22 11:11:00;;;;;;;14.73;4.75;;;16.20;99.90;;;;;;6339596;22;20414;-80
2022/10/22 11:13:42;;;;;;;12.38;4.88;;;16.20;99.90;;;;;;6312335;22;20089;-81
2022/10/22 11:16:45;;;;;;;14.35;4.40;;;16.20;99.90;;;;;;6312320;22;20011;-81
2022/10/22 11:19:19;;;;;;;7.80;4.13;;;16.20;99.90;;;;;;6340091;22;20015;-81
2022/10/22 11:21:51;;;;;;;10.35;4.20;;;16.20;99.90;;;;;;6312244;22;20334;-80
2022/10/22 11:24:46;;;;;;;10.00;4.13;;;16.20;99.90;;;;;;6311924;22;20411;-79
2022/10/22 11:27:14;;;;;;;8.27;4.15;;;16.20;99.90;;;;;;6310781;22;20018;-81
2022/10/22 11:29:44;;;;;;;6.65;3.90;;;16.20;99.90;;;;;;6312447;22;20430;-81
2022/10/22 11:32:18;;;;;;;9.75;4.80;;;16.10;99.90;;;;;;6339604;22;20376;-80
2022/10/22 11:35:05;;;;;;;7.72;4.13;;;16.00;99.90;;;;;;6312064;22;20015;-80
2022/10/22 11:37:34;;;;;;;10.43;4.15;;;15.90;99.90;;;;;;6311374;22;20025;-80
2022/10/22 11:40:19;;;;;;;12.98;5.70;;;15.70;99.90;;;;;;6311974;22;20011;-80
2022/10/22 11:42:55;;;;;;;13.70;5.60;;;15.70;99.90;;;;;;6312059;22;20067;-80
2022/10/22 11:45:25;;;;;;;13.80;6.53;;;15.60;99.90;;;;;;6339400;22;20153;-82
2022/10/22 11:47:56;;;;;;;14.85;6.82;;;15.60;99.90;;;;;;6339946;22;20018;-81
2022/10/22 11:50:42;;;;;;;14.48;6.53;;;15.60;99.90;;;;;;6339652;22;20454;-81
2022/10/22 11:53:13;;;;;;;10.70;6.15;;;15.70;99.90;;;;;;6312039;22;20042;-82
2022/10/22 11:55:46;;;;;;;14.00;6.72;;;15.70;99.90;;;;;;6339423;22;20026;-81
2022/10/22 11:58:31;;;;;;;14.88;7.07;;;15.70;99.90;;;;;;6339994;22;20019;-82
2022/10/22 12:01:00;;;;;;;15.07;6.85;;;15.70;99.90;;;;;;6311845;22;20015;-81
2022/10/22 12:03:32;;;;;;;17.75;7.00;;;15.60;99.90;;;;;;6311727;22;20015;-81
2022/10/22 12:06:14;;;;;;;14.50;6.65;;;15.70;99.90;;;;;;6311679;22;20047;-81
2022/10/22 12:08:49;;;;;;;13.90;6.63;;;15.80;99.90;;;;;;6339943;22;20011;-80
2022/10/22 12:11:35;;;;;;;13.45;5.82;;;15.80;99.90;;;;;;6311651;22;20079;-81
2022/10/22 12:14:06;;;;;;;14.10;6.47;;;15.80;99.90;;;;;;6311809;22;20371;-81
2022/10/22 12:16:32;;;;;;;14.80;6.80;;;15.70;99.90;;;;;;6311531;22;20447;-80
2022/10/22 12:19:12;;;;;;;15.85;6.53;;;15.70;99.90;;;;;;6311748;22;20018;-81
2022/10/22 12:21:40;;;;;;;11.32;6.40;;;15.70;99.90;;;;;;6311623;22;20377;-81
2022/10/22 12:24:11;;;;;;;15.82;6.18;;;15.70;99.90;;;;;;6339750;22;20076;-80
2022/10/22 12:26:36;;;;;;;13.95;6.03;;;15.70;99.90;;;;;;6339064;22;20377;-84
2022/10/22 12:29:10;;;;;;;12.32;6.03;;;15.70;99.90;;;;;;6311487;22;20010;-80
2022/10/22 12:31:38;;;;;;;13.05;5.70;;;15.60;99.90;;;;;;6339194;22;20086;-80
2022/10/22 12:34:04;;;;;;;13.23;4.78;;;15.60;99.90;;;;;;6339321;22;20022;-80
2022/10/22 12:36:35;;;;;;;10.77;4.50;;;15.70;99.90;;;;;;6311023;22;20452;-80
2022/10/22 12:39:12;;;;;;;12.30;4.00;;;15.80;99.90;;;;;;6312590;22;20021;-81
2022/10/22 12:41:39;;;;;;;10.20;4.22;;;15.70;99.90;;;;;;6311582;22;20021;-80
2022/10/22 12:44:05;;;;;;;7.82;3.70;;;15.80;99.90;;;;;;6339359;22;20477;-81
2022/10/22 12:46:35;;;;;;;8.45;3.15;;;15.80;99.90;;;;;;6339143;22;20072;-81
2022/10/22 12:49:07;;;;;;;12.77;3.17;;;15.80;99.90;;;;;;6311485;22;20006;-81
2022/10/22 12:51:33;;;;;;;;;;;15.90;99.90;;;;;;6311871;22;20384;-81
2022/10/22 12:54:17;;;;;;;6.65;1.92;;;16.00;99.90;;;;;;6311378;22;19910;-81
2022/10/22 12:56:45;;;;;;;6.95;2.25;;;16.10;99.90;;;;;;6339354;22;20026;-81